Terminal Aerodrome Forecast
Issued by NWS

Home | Current Version | Previous Version | Text Only | Print | Product List | Glossary On
Versions: 1 2 3 4 5 6 7 8 9 10 11 12 13 14 15 16 17 18 19 20 21 22 23 24 25 26 27 28 29 30 31 32 33 34 35 36 37
000
FTUS43 KDLH 151700 RRA
TAFHYR
TAF
KHYR 151742Z 1518/1618 22004KT 1/4SM FG OVC002
      TEMPO 1518/1521 1 1/2SM -RA OVC006
     FM152100 VRB05KT 2SM -RA BR OVC005
     FM152300 02006KT 2SM -RAPL OVC004
     FM160500 01012G18KT 1SM -SN OVC008
     FM161100 35011G18KT 3SM -SN OVC008
     FM161300 34010KT P6SM VCSH OVC012=

USA.gov is the U.S. government's official web portal to all federal, state and local government web resources and services.